Time;durP1;ratioP1;P1;durP2;ratioP2;P2;SDS_P1;SDS_P2;PMS_P1;PMS_P2;Temp;Humidity;BMP_temperature;BMP_pressure;BME280_temperature;BME280_humidity;BME280_pressure;Samples;Min_cycle;Max_cycle;Signal;HPM_P1;HPM_P2
2023/10/30 00:02:23;;;;;;;5.43;0.95;;;;;;;11.63;100.00;99594.34;6276035;28;20053;-78
2023/10/30 00:05:24;;;;;;;3.75;0.70;;;;;;;11.61;100.00;99598.03;6276396;28;20053;-78
2023/10/30 00:08:26;;;;;;;2.75;1.13;;;;;;;11.59;100.00;99594.69;6276147;28;20052;-77
2023/10/30 00:11:29;;;;;;;1.45;0.45;;;;;;;11.57;100.00;99602.69;6276127;28;20049;-77
2023/10/30 00:14:31;;;;;;;4.05;0.85;;;;;;;11.64;100.00;99614.44;6275998;28;20053;-79
2023/10/30 00:17:32;;;;;;;4.45;0.77;;;;;;;11.65;100.00;99613.47;6276194;28;20049;-78
2023/10/30 00:20:36;;;;;;;9.88;1.05;;;;;;;11.66;100.00;99614.31;6275924;28;20045;-78
2023/10/30 00:23:37;;;;;;;9.55;1.10;;;;;;;11.60;100.00;99612.16;6275388;28;20049;-79
2023/10/30 00:26:40;;;;;;;2.13;0.75;;;;;;;11.59;100.00;99627.09;6275911;28;20057;-79
2023/10/30 00:29:42;;;;;;;9.60;1.08;;;;;;;11.51;100.00;99623.38;6275461;28;20045;-79
2023/10/30 00:32:43;;;;;;;3.88;0.60;;;;;;;11.51;100.00;99624.22;6275678;28;20044;-78
2023/10/30 00:35:44;;;;;;;1.33;0.73;;;;;;;11.59;100.00;99621.84;6275482;28;20056;-78
2023/10/30 00:38:46;;;;;;;3.63;0.55;;;;;;;11.49;100.00;99620.88;6275798;28;20052;-78
2023/10/30 00:41:49;;;;;;;4.25;0.88;;;;;;;11.54;100.00;99620.53;6275296;28;20049;-79
2023/10/30 00:44:50;;;;;;;4.22;1.17;;;;;;;11.51;100.00;99629.47;6275509;28;20055;-77
2023/10/30 00:47:51;;;;;;;8.00;1.10;;;;;;;11.47;100.00;99635.91;6275497;28;20060;-77
2023/10/30 00:50:53;;;;;;;5.22;0.65;;;;;;;11.49;100.00;99630.53;6274884;28;20071;-79
2023/10/30 00:53:54;;;;;;;1.88;1.33;;;;;;;11.53;100.00;99627.56;6275173;28;20048;-79
2023/10/30 00:56:57;;;;;;;2.83;0.60;;;;;;;11.51;100.00;99636.53;6275228;28;20045;-79
2023/10/30 00:59:59;;;;;;;10.18;1.02;;;;;;;11.50;100.00;99640.97;6275302;28;20048;-79
2023/10/30 01:03:00;;;;;;;1.45;0.68;;;;;;;11.51;100.00;99652.31;6275008;28;20072;-78
2023/10/30 01:06:01;;;;;;;4.18;0.52;;;;;;;11.53;100.00;99660.91;6275269;28;20045;-78
2023/10/30 01:09:03;;;;;;;2.35;0.68;;;;;;;11.47;100.00;99662.22;6275064;28;20098;-78
2023/10/30 01:12:06;;;;;;;3.42;0.98;;;;;;;11.47;100.00;99661.38;6275011;28;20045;-78
2023/10/30 01:15:09;;;;;;;7.38;0.80;;;;;;;11.47;100.00;99670.13;6275037;28;20063;-78
2023/10/30 01:18:11;;;;;;;4.55;0.60;;;;;;;11.47;100.00;99685.06;6275264;28;20044;-78
2023/10/30 01:21:13;;;;;;;2.17;0.88;;;;;;;11.42;100.00;99693.28;6274813;28;20105;-78
2023/10/30 01:24:15;;;;;;;4.95;0.93;;;;;;;11.57;100.00;99686.06;6274940;28;20053;-79
2023/10/30 01:27:18;;;;;;;2.05;0.43;;;;;;;11.51;100.00;99682.09;6274930;28;20433;-78
2023/10/30 01:30:20;;;;;;;1.83;0.52;;;;;;;11.53;100.00;99692.50;6274741;28;20049;-78
2023/10/30 01:33:23;;;;;;;2.50;0.70;;;;;;;11.51;100.00;99670.72;6274828;28;20049;-78
2023/10/30 01:36:24;;;;;;;2.90;0.70;;;;;;;11.49;100.00;99676.13;6274667;28;20350;-78
2023/10/30 01:39:25;;;;;;;7.75;0.95;;;;;;;11.46;100.00;99678.97;6274928;28;20053;-78
2023/10/30 01:42:28;;;;;;;3.47;0.52;;;;;;;11.41;100.00;99681.09;6274640;28;20060;-77
2023/10/30 01:45:29;;;;;;;2.33;0.60;;;;;;;11.39;100.00;99677.72;6274639;28;20052;-77
2023/10/30 01:48:34;;;;;;;4.82;0.80;;;;;;;11.34;100.00;99674.59;6274556;28;20357;-78
2023/10/30 01:51:36;;;;;;;2.55;0.60;;;;;;;11.35;100.00;99682.38;6274303;28;20053;-78
2023/10/30 01:54:38;;;;;;;2.42;0.80;;;;;;;11.31;100.00;99685.34;6274563;28;20434;-78
2023/10/30 01:57:41;;;;;;;2.95;0.90;;;;;;;11.30;100.00;99699.44;6274798;28;20060;-77
2023/10/30 02:00:43;;;;;;;0.57;0.45;;;;;;;11.33;100.00;99691.34;6274504;28;20045;-78
2023/10/30 02:03:44;;;;;;;2.63;0.95;;;;;;;11.33;100.00;99693.97;6277913;28;20075;-78
2023/10/30 02:06:46;;;;;;;4.95;0.80;;;;;;;11.37;100.00;99708.59;6279151;28;20052;-78
2023/10/30 02:09:48;;;;;;;5.13;0.77;;;;;;;11.33;100.00;99710.59;6278717;28;20048;-78
2023/10/30 02:12:51;;;;;;;6.80;1.17;;;;;;;11.37;100.00;99714.69;6278920;28;20064;-77
2023/10/30 02:15:53;;;;;;;3.40;0.38;;;;;;;11.30;100.00;99713.44;6278837;28;20048;-77
2023/10/30 02:18:54;;;;;;;0.88;0.63;;;;;;;11.30;100.00;99716.06;6278987;28;20041;-77
2023/10/30 02:21:56;;;;;;;3.17;1.02;;;;;;;11.33;100.00;99717.66;6278230;28;20060;-77
2023/10/30 02:24:58;;;;;;;6.40;1.05;;;;;;;11.33;100.00;99709.75;6278512;28;20353;-78
2023/10/30 02:28:01;;;;;;;4.35;0.90;;;;;;;11.34;100.00;99712.25;6278583;28;20053;-78
2023/10/30 02:31:03;;;;;;;8.02;1.27;;;;;;;11.38;100.00;99710.25;6278039;28;20045;-78
2023/10/30 02:34:04;;;;;;;3.80;0.82;;;;;;;11.35;100.00;99713.09;6278394;28;20055;-78
2023/10/30 02:37:06;;;;;;;4.78;0.73;;;;;;;11.31;100.00;99715.13;6278566;28;20060;-78
2023/10/30 02:40:09;;;;;;;2.35;0.80;;;;;;;11.29;100.00;99716.19;6278291;28;20056;-78
2023/10/30 02:43:11;;;;;;;4.68;0.80;;;;;;;11.26;100.00;99713.78;6278000;28;20053;-78
2023/10/30 02:46:13;;;;;;;4.40;0.70;;;;;;;11.22;100.00;99715.81;6277973;28;20052;-78
2023/10/30 02:49:14;;;;;;;3.25;0.85;;;;;;;11.21;100.00;99724.63;6277956;28;20045;-78
2023/10/30 02:52:15;;;;;;;2.70;0.82;;;;;;;11.20;100.00;99716.84;6277712;28;20053;-78
2023/10/30 02:55:17;;;;;;;3.92;0.68;;;;;;;11.12;100.00;99712.97;6277881;28;20068;-78
2023/10/30 02:58:20;;;;;;;5.63;0.90;;;;;;;11.03;100.00;99718.06;6278035;28;20048;-77
2023/10/30 03:01:21;;;;;;;7.45;0.95;;;;;;;11.02;100.00;99719.84;6277510;28;20095;-78
2023/10/30 03:04:23;;;;;;;5.47;1.00;;;;;;;11.03;100.00;99723.31;6277907;28;20087;-78
2023/10/30 03:07:25;;;;;;;7.03;1.20;;;;;;;11.04;100.00;99725.88;6277628;28;20052;-78
2023/10/30 03:10:27;;;;;;;3.60;0.70;;;;;;;11.07;100.00;99719.53;6277639;28;20045;-77
2023/10/30 03:13:29;;;;;;;4.88;1.30;;;;;;;11.11;100.00;99721.00;6276192;28;20063;-78
2023/10/30 03:16:31;;;;;;;11.07;0.85;;;;;;;11.12;100.00;99725.28;6277387;28;20052;-78
2023/10/30 03:19:32;;;;;;;3.65;0.70;;;;;;;11.08;100.00;99724.69;6277228;28;20044;-78
2023/10/30 03:22:34;;;;;;;2.97;0.70;;;;;;;11.11;100.00;99728.88;6276837;28;20049;-78
2023/10/30 03:25:35;;;;;;;12.23;1.25;;;;;;;11.11;100.00;99723.63;6277331;28;20055;-78
2023/10/30 03:28:38;;;;;;;5.05;0.80;;;;;;;11.09;100.00;99731.63;6277127;28;20349;-78
2023/10/30 03:31:39;;;;;;;4.63;0.80;;;;;;;11.09;100.00;99725.53;6276729;28;20053;-77
2023/10/30 03:34:41;;;;;;;3.97;0.90;;;;;;;11.14;100.00;99739.19;6276899;28;20060;-78
2023/10/30 03:37:42;;;;;;;4.30;0.70;;;;;;;11.11;100.00;99739.41;6276856;28;20468;-77
2023/10/30 03:40:43;;;;;;;9.02;0.70;;;;;;;11.14;100.00;99742.66;6276764;28;20048;-77
2023/10/30 03:43:46;;;;;;;3.80;0.60;;;;;;;11.18;100.00;99748.53;6276837;28;20084;-77
2023/10/30 03:46:48;;;;;;;7.32;0.65;;;;;;;11.04;100.00;99746.06;6276891;28;20055;-78
2023/10/30 03:49:49;;;;;;;1.42;0.73;;;;;;;11.06;100.00;99737.09;6275806;28;20165;-78
2023/10/30 03:52:51;;;;;;;7.53;1.30;;;;;;;11.06;100.00;99737.09;6276172;28;20049;-78
2023/10/30 03:55:52;;;;;;;6.35;2.25;;;;;;;11.06;100.00;99746.78;6276627;28;20045;-78
2023/10/30 03:58:55;;;;;;;2.92;0.88;;;;;;;11.06;100.00;99744.16;6276354;28;20338;-76
2023/10/30 04:01:56;;;;;;;7.82;1.20;;;;;;;11.01;100.00;99743.63;6276367;28;20056;-78
2023/10/30 04:04:58;;;;;;;9.88;0.90;;;;;;;10.99;100.00;99735.88;6276238;28;20056;-78
2023/10/30 04:08:00;;;;;;;3.42;0.55;;;;;;;11.01;100.00;99736.59;6276196;28;20049;-78
2023/10/30 04:11:09;;;;;;;3.70;0.50;;;;;;;11.10;100.00;99740.34;6276005;28;20045;-78
2023/10/30 04:14:11;;;;;;;6.18;0.88;;;;;;;10.99;100.00;99733.25;6276099;28;20095;-78
2023/10/30 04:17:13;;;;;;;2.15;0.50;;;;;;;10.91;100.00;99739.03;6276300;28;20076;-78
2023/10/30 04:20:14;;;;;;;2.65;0.73;;;;;;;10.83;100.00;99740.53;6275813;28;20049;-78
2023/10/30 04:23:15;;;;;;;6.32;0.52;;;;;;;10.84;100.00;99736.94;6275613;28;20053;-78
2023/10/30 04:26:19;;;;;;;2.40;0.40;;;;;;;10.83;100.00;99738.72;6275344;28;20353;-78
2023/10/30 04:29:21;;;;;;;7.20;1.13;;;;;;;10.87;100.00;99739.34;6275823;28;20056;-78
2023/10/30 04:32:23;;;;;;;1.85;0.70;;;;;;;10.82;100.00;99733.59;6275424;28;20045;-77
2023/10/30 04:35:24;;;;;;;6.60;0.98;;;;;;;10.74;100.00;99736.75;6275509;28;20049;-78
2023/10/30 04:38:26;;;;;;;2.75;0.45;;;;;;;10.71;100.00;99739.59;6275583;28;20059;-78
2023/10/30 04:41:27;;;;;;;4.18;0.98;;;;;;;10.70;100.00;99739.69;6275514;28;20045;-78
2023/10/30 04:44:30;;;;;;;9.77;1.02;;;;;;;10.72;100.00;99743.03;6275472;28;20049;-78
2023/10/30 04:47:31;;;;;;;4.47;1.02;;;;;;;10.69;100.00;99751.16;6275377;28;20063;-78
2023/10/30 04:50:33;;;;;;;1.58;0.85;;;;;;;10.70;100.00;99753.69;6275309;28;20051;-77
2023/10/30 04:53:34;;;;;;;2.35;0.60;;;;;;;10.69;100.00;99748.53;6274903;28;20049;-78
2023/10/30 04:56:35;;;;;;;1.95;0.75;;;;;;;10.67;100.00;99748.63;6275474;28;20060;-78
2023/10/30 04:59:38;;;;;;;6.70;1.00;;;;;;;10.64;100.00;99747.06;6275149;28;20052;-76
2023/10/30 05:02:40;;;;;;;7.72;1.35;;;;;;;10.59;100.00;99748.34;6275191;28;20053;-77
2023/10/30 05:05:41;;;;;;;3.13;0.70;;;;;;;10.58;100.00;99750.13;6275111;28;20053;-78
2023/10/30 05:08:42;;;;;;;5.50;1.15;;;;;;;10.57;100.00;99758.94;6275146;28;20442;-78
2023/10/30 05:11:44;;;;;;;5.97;0.75;;;;;;;10.63;100.00;99760.31;6274783;28;20460;-78
2023/10/30 05:14:47;;;;;;;3.38;0.73;;;;;;;10.65;100.00;99767.13;6275002;28;20045;-77
2023/10/30 05:17:48;;;;;;;3.30;0.70;;;;;;;10.59;100.00;99757.06;6275144;28;20052;-77
2023/10/30 05:20:49;;;;;;;3.65;1.50;;;;;;;10.69;100.00;99759.88;6274660;28;20049;-77
2023/10/30 05:23:51;;;;;;;6.53;0.80;;;;;;;10.67;100.00;99761.75;6274880;28;20045;-77
2023/10/30 05:26:52;;;;;;;6.63;0.65;;;;;;;10.65;100.00;99756.63;6274967;28;20457;-77
2023/10/30 05:29:55;;;;;;;2.80;0.85;;;;;;;10.64;100.00;99756.75;6274939;28;20448;-77
2023/10/30 05:32:57;;;;;;;5.60;0.90;;;;;;;10.64;100.00;99760.19;6274730;28;20052;-77
2023/10/30 05:35:58;;;;;;;2.22;0.75;;;;;;;10.70;100.00;99758.09;6274903;28;20045;-77
2023/10/30 05:39:00;;;;;;;2.60;0.70;;;;;;;10.74;100.00;99756.94;6278833;28;20357;-77
2023/10/30 05:42:02;;;;;;;2.58;0.80;;;;;;;10.72;100.00;99762.31;6279609;28;20060;-76
2023/10/30 05:45:06;;;;;;;9.93;1.70;;;;;;;10.73;100.00;99765.78;6279414;28;20457;-77
2023/10/30 05:48:07;;;;;;;3.83;0.80;;;;;;;10.75;100.00;99753.34;6279741;28;20048;-77
2023/10/30 05:51:09;;;;;;;3.53;0.90;;;;;;;10.72;100.00;99746.53;6279219;28;20048;-77
2023/10/30 05:54:10;;;;;;;5.45;0.63;;;;;;;10.71;100.00;99752.72;6279083;28;20049;-77
2023/10/30 05:57:13;;;;;;;9.38;0.73;;;;;;;10.72;100.00;99761.44;6279509;28;20056;-77
2023/10/30 06:00:16;;;;;;;5.40;0.80;;;;;;;10.67;100.00;99748.63;6278776;28;20041;-77
2023/10/30 06:03:18;;;;;;;5.15;0.90;;;;;;;10.72;100.00;99751.78;6278978;28;20334;-77
2023/10/30 06:06:19;;;;;;;5.85;1.15;;;;;;;10.76;100.00;99755.88;6279063;28;20049;-77
2023/10/30 06:09:20;;;;;;;6.10;0.70;;;;;;;10.72;100.00;99767.56;6279279;28;20056;-77
2023/10/30 06:12:23;;;;;;;4.05;0.80;;;;;;;10.70;100.00;99766.81;6278629;28;20052;-77
2023/10/30 06:15:25;;;;;;;6.45;1.08;;;;;;;10.68;100.00;99783.66;6279051;28;20049;-77
2023/10/30 06:18:27;;;;;;;3.70;0.80;;;;;;;10.65;100.00;99785.53;6278634;28;20434;-77
2023/10/30 06:21:28;;;;;;;7.95;0.98;;;;;;;10.64;100.00;99790.91;6278319;28;20064;-77
2023/10/30 06:24:31;;;;;;;5.20;0.90;;;;;;;10.63;100.00;99792.69;6278756;28;20076;-77
2023/10/30 06:27:32;;;;;;;6.57;2.50;;;;;;;10.66;100.00;99794.25;6278583;28;20048;-77
2023/10/30 06:30:36;;;;;;;6.38;0.80;;;;;;;10.65;100.00;99800.44;6278530;28;20048;-77
2023/10/30 06:33:37;;;;;;;8.18;0.90;;;;;;;10.61;100.00;99797.19;6278101;28;20045;-77
2023/10/30 06:36:39;;;;;;;4.60;0.75;;;;;;;10.59;100.00;99795.63;6278625;28;20060;-77
2023/10/30 06:39:40;;;;;;;1.30;0.68;;;;;;;10.60;100.00;99798.16;6278211;28;20052;-77
2023/10/30 06:42:42;;;;;;;3.33;0.88;;;;;;;10.57;100.00;99795.72;6278232;28;20118;-77
2023/10/30 06:45:45;;;;;;;2.38;0.60;;;;;;;10.57;100.00;99800.13;6278006;28;20134;-77
2023/10/30 06:48:46;;;;;;;5.25;1.08;;;;;;;10.57;100.00;99802.75;6277873;28;20053;-77
2023/10/30 06:51:48;;;;;;;4.20;0.50;;;;;;;10.53;100.00;99796.88;6277461;28;20056;-77
2023/10/30 06:54:49;;;;;;;1.58;0.63;;;;;;;10.59;100.00;99806.97;6277892;28;20056;-77
2023/10/30 06:57:50;;;;;;;4.13;0.73;;;;;;;10.63;100.00;99810.25;6278004;28;20052;-78
2023/10/30 07:01:02;;;;;;;2.42;1.23;;;;;;;10.65;100.00;99810.97;6277910;28;20060;-77
2023/10/30 07:04:04;;;;;;;5.57;0.98;;;;;;;10.72;100.00;99814.88;6277790;28;20049;-77
2023/10/30 07:07:05;;;;;;;11.52;1.17;;;;;;;10.71;100.00;99822.84;6277669;28;20468;-77
2023/10/30 07:10:07;;;;;;;3.83;0.98;;;;;;;10.69;100.00;99816.84;6277611;28;20049;-77
2023/10/30 07:13:09;;;;;;;8.18;0.88;;;;;;;10.73;100.00;99832.31;6277406;28;20060;-77
2023/10/30 07:16:12;;;;;;;1.80;0.80;;;;;;;10.74;100.00;99831.34;6277411;28;20380;-77
2023/10/30 07:19:15;;;;;;;5.03;0.60;;;;;;;10.77;100.00;99820.63;6277299;28;20060;-77
2023/10/30 07:22:17;;;;;;;2.28;0.93;;;;;;;10.77;100.00;99833.78;6276940;28;20052;-77
2023/10/30 07:25:18;;;;;;;4.55;0.93;;;;;;;10.76;100.00;99829.44;6277231;28;20065;-77
2023/10/30 07:28:19;;;;;;;6.05;1.10;;;;;;;10.81;100.00;99832.63;6277369;28;20048;-77
2023/10/30 07:31:22;;;;;;;2.88;0.90;;;;;;;10.82;100.00;99836.09;6276752;28;20055;-78
2023/10/30 07:34:24;;;;;;;3.95;0.93;;;;;;;10.80;100.00;99840.59;6277271;28;20056;-78
2023/10/30 07:37:26;;;;;;;2.25;1.42;;;;;;;10.76;100.00;99839.97;6276846;28;20044;-78
2023/10/30 07:40:28;;;;;;;1.33;0.52;;;;;;;10.72;100.00;99843.78;6277006;28;20135;-78
2023/10/30 07:43:29;;;;;;;6.65;2.22;;;;;;;10.67;100.00;99851.09;6276553;28;20456;-78
2023/10/30 07:46:32;;;;;;;3.25;1.05;;;;;;;10.65;100.00;99853.84;6276696;28;20053;-78
2023/10/30 07:49:33;;;;;;;7.03;1.08;;;;;;;10.65;100.00;99845.97;6276700;28;20048;-78
2023/10/30 07:52:35;;;;;;;5.05;1.10;;;;;;;10.65;100.00;99845.97;6276123;28;20053;-78
2023/10/30 07:55:38;;;;;;;7.05;1.83;;;;;;;10.59;100.00;99851.63;6276680;28;20049;-78
2023/10/30 07:58:39;;;;;;;1.67;1.10;;;;;;;10.59;100.00;99850.81;6276336;28;20152;-78
2023/10/30 08:01:44;;;;;;;5.18;1.17;;;;;;;10.58;100.00;99856.97;6275519;28;20056;-78
2023/10/30 08:04:45;;;;;;;2.38;0.90;;;;;;;10.56;100.00;99843.13;6276223;28;20053;-78
2023/10/30 08:07:47;;;;;;;2.53;1.17;;;;;;;10.56;100.00;99849.22;6276450;28;20049;-78
2023/10/30 08:10:48;;;;;;;1.63;0.52;;;;;;;10.59;100.00;99850.81;6275907;28;20142;-78
2023/10/30 08:13:50;;;;;;;8.45;0.85;;;;;;;10.60;100.00;99849.84;6276304;28;20052;-78
2023/10/30 08:16:52;;;;;;;3.78;1.10;;;;;;;10.61;100.00;99844.47;6276169;28;20045;-78
2023/10/30 08:19:54;;;;;;;2.53;0.85;;;;;;;10.76;100.00;99852.25;6275860;28;20061;-78
2023/10/30 08:22:56;;;;;;;4.32;0.98;;;;;;;10.83;100.00;99851.75;6275645;28;20045;-78
2023/10/30 08:25:57;;;;;;;10.02;0.93;;;;;;;10.99;100.00;99864.69;6275766;28;20049;-78
2023/10/30 08:28:58;;;;;;;7.47;1.13;;;;;;;11.09;100.00;99865.72;6275736;28;20068;-78
2023/10/30 08:32:01;;;;;;;1.92;0.80;;;;;;;11.18;100.00;99865.09;6275261;28;20049;-78
2023/10/30 08:35:03;;;;;;;3.70;0.70;;;;;;;11.34;100.00;99853.47;6275809;28;20140;-78
2023/10/30 08:38:04;;;;;;;6.93;1.15;;;;;;;11.39;100.00;99860.09;6275630;28;20444;-78
2023/10/30 08:41:05;;;;;;;2.83;1.33;;;;;;;11.49;100.00;99867.31;6275577;28;20055;-78
2023/10/30 08:44:07;;;;;;;5.85;1.58;;;;;;;11.55;100.00;99867.75;6275383;28;20052;-78
2023/10/30 08:47:10;;;;;;;2.78;1.05;;;;;;;11.63;100.00;99872.47;6275449;28;20338;-78
2023/10/30 08:50:11;;;;;;;1.65;0.70;;;;;;;11.71;100.00;99866.63;6275454;28;20053;-78
2023/10/30 08:53:13;;;;;;;5.20;1.52;;;;;;;11.77;100.00;99860.94;6274776;28;20053;-78
2023/10/30 08:56:14;;;;;;;3.90;1.08;;;;;;;11.81;100.00;99863.25;6275419;28;20052;-78
2023/10/30 08:59:16;;;;;;;5.10;1.05;;;;;;;11.96;100.00;99868.38;6275224;28;20049;-78
2023/10/30 09:02:19;;;;;;;6.80;0.93;;;;;;;12.02;100.00;99862.63;6275151;28;20052;-78
2023/10/30 09:05:20;;;;;;;11.32;1.42;;;;;;;12.08;100.00;99862.19;6275064;28;20045;-77
2023/10/30 09:08:21;;;;;;;6.32;1.30;;;;;;;12.10;100.00;99863.75;6275386;28;20057;-77
2023/10/30 09:11:23;;;;;;;4.18;0.82;;;;;;;12.18;100.00;99873.75;6276456;28;20433;-77
2023/10/30 09:14:24;;;;;;;7.18;1.42;;;;;;;12.18;100.00;99879.00;6280484;28;20053;-76
2023/10/30 09:17:27;;;;;;;3.90;0.93;;;;;;;12.27;100.00;99885.38;6280225;28;20053;-79
2023/10/30 09:20:28;;;;;;;6.05;0.80;;;;;;;12.28;100.00;99884.44;6280075;28;20045;-78
2023/10/30 09:23:30;;;;;;;2.95;1.05;;;;;;;12.33;100.00;99891.03;6279862;28;20349;-78
2023/10/30 09:26:31;;;;;;;7.05;1.00;;;;;;;12.42;100.00;99897.41;6280028;28;20049;-78
2023/10/30 09:29:32;;;;;;;11.93;2.15;;;;;;;12.50;100.00;99888.94;6279957;28;20060;-79
2023/10/30 09:32:35;;;;;;;3.35;0.75;;;;;;;12.45;100.00;99889.28;6279547;28;20045;-78
2023/10/30 09:35:38;;;;;;;8.13;0.95;;;;;;;12.46;100.00;99887.50;6279751;28;20322;-79
2023/10/30 09:38:41;;;;;;;4.28;1.25;;;;;;;12.54;100.00;99885.97;6279737;28;20057;-78
2023/10/30 09:41:45;;;;;;;2.35;0.68;;;;;;;12.63;100.00;99900.25;6279664;28;20099;-78
2023/10/30 09:44:47;;;;;;;11.93;1.98;;;;;;;12.74;100.00;99900.25;6279496;28;20060;-78
2023/10/30 09:47:52;;;;;;;4.63;0.63;;;;;;;12.86;100.00;99895.84;6279562;28;20052;-78
2023/10/30 09:50:54;;;;;;;7.18;1.00;;;;;;;12.88;100.00;99905.31;6279181;28;20044;-78
2023/10/30 09:53:56;;;;;;;1.58;0.80;;;;;;;12.99;100.00;99899.25;6279288;28;20060;-78
2023/10/30 09:57:00;;;;;;;4.38;0.88;;;;;;;13.05;100.00;99903.19;6279438;28;20060;-78
2023/10/30 10:00:05;;;;;;;6.47;1.92;;;;;;;13.10;100.00;99895.75;6279098;28;20051;-78
2023/10/30 10:03:10;;;;;;;3.05;1.10;;;;;;;13.15;100.00;99909.44;6279045;28;20041;-79
2023/10/30 10:06:11;;;;;;;1.98;0.65;;;;;;;13.16;100.00;99909.31;6278997;28;20441;-78
2023/10/30 10:09:13;;;;;;;2.80;0.52;;;;;;;13.21;100.00;99911.59;6279200;28;20053;-78
2023/10/30 10:12:20;;;;;;;8.65;1.80;;;;;;;13.21;100.00;99920.34;6278691;28;20048;-79
2023/10/30 10:15:22;;;;;;;5.43;0.70;;;;;;;13.19;100.00;99908.25;6278870;28;20083;-78
2023/10/30 10:18:26;;;;;;;5.03;1.42;;;;;;;13.21;100.00;99908.94;6278807;28;20045;-79
2023/10/30 10:21:27;;;;;;;6.18;1.13;;;;;;;13.31;100.00;99907.31;6278395;28;20429;-77
2023/10/30 10:24:29;;;;;;;3.58;1.27;;;;;;;13.42;100.00;99906.47;6277892;28;20053;-78
2023/10/30 10:27:31;;;;;;;1.65;0.70;;;;;;;13.51;100.00;99902.28;6278780;28;20435;-78
2023/10/30 10:30:32;;;;;;;3.10;1.08;;;;;;;13.50;100.00;99900.59;6277980;28;20114;-77
2023/10/30 10:33:35;;;;;;;3.97;1.17;;;;;;;13.46;100.00;99897.34;6278363;28;20049;-76
2023/10/30 10:36:41;;;;;;;6.60;0.77;;;;;;;13.54;100.00;99907.31;6278441;28;20081;-78
2023/10/30 10:39:50;;;;;;;8.90;0.90;;;;;;;13.62;100.00;99904.88;6278466;28;20051;-78
2023/10/30 10:42:52;;;;;;;2.72;0.75;;;;;;;13.76;100.00;99924.91;6278029;28;20357;-78
2023/10/30 10:45:55;;;;;;;6.18;1.33;;;;;;;13.77;100.00;99908.97;6278032;28;20049;-76
2023/10/30 10:48:57;;;;;;;3.47;0.70;;;;;;;13.76;100.00;99899.34;6278171;28;20468;-75
2023/10/30 10:52:00;;;;;;;5.93;1.33;;;;;;;13.84;100.00;99907.50;6277438;28;20049;-75
2023/10/30 10:55:03;;;;;;;2.97;0.93;;;;;;;13.96;100.00;99889.81;6277898;28;20442;-75
2023/10/30 10:58:09;;;;;;;6.07;0.93;;;;;;;13.98;100.00;99893.16;6277810;28;20155;-76
2023/10/30 11:01:17;;;;;;;5.18;0.90;;;;;;;13.99;100.00;99884.31;6277563;28;20106;-73
2023/10/30 11:04:20;;;;;;;1.27;0.80;;;;;;;14.02;100.00;99881.38;6277709;28;20049;-73
2023/10/30 11:07:27;;;;;;;2.30;1.40;;;;;;;14.12;100.00;99869.09;6277860;28;20059;-73
2023/10/30 11:10:34;;;;;;;10.77;0.90;;;;;;;14.26;100.00;99864.47;6277518;28;20056;-74
2023/10/30 11:13:48;;;;;;;7.55;1.10;;;;;;;14.33;100.00;99855.94;6277412;28;20045;-73
2023/10/30 11:16:58;;;;;;;5.05;0.73;;;;;;;14.33;100.00;99855.09;6277425;28;20430;-73
2023/10/30 11:20:08;;;;;;;5.30;0.82;;;;;;;14.38;100.00;99860.84;6277478;28;20045;-73
2023/10/30 11:23:10;;;;;;;3.85;0.60;;;;;;;14.38;100.00;99848.44;6276955;28;20052;-72
2023/10/30 11:26:13;;;;;;;1.55;0.88;;;;;;;14.41;100.00;99850.84;6277215;28;20049;-71
2023/10/30 11:29:17;;;;;;;6.78;1.00;;;;;;;14.49;100.00;99842.31;6277406;28;20051;-72
2023/10/30 11:32:18;;;;;;;6.40;1.00;;;;;;;14.51;100.00;99839.53;6277119;28;20127;-73
2023/10/30 11:35:22;;;;;;;5.47;1.30;;;;;;;14.42;100.00;99836.66;6275894;28;20063;-73
2023/10/30 11:38:26;;;;;;;8.85;1.40;;;;;;;14.49;100.00;99837.03;6277193;28;20130;-74
2023/10/30 11:41:29;;;;;;;4.28;0.70;;;;;;;14.46;100.00;99824.84;6276656;28;20041;-73
2023/10/30 11:44:31;;;;;;;2.50;0.90;;;;;;;14.42;100.00;99826.09;6276874;28;20045;-74
2023/10/30 11:47:33;;;;;;;3.25;0.85;;;;;;;14.52;100.00;99825.34;6276760;28;20114;-74
2023/10/30 11:50:37;;;;;;;4.75;1.20;;;;;;;14.51;100.00;99821.84;6276852;28;20059;-73
2023/10/30 11:53:42;;;;;;;5.72;1.05;;;;;;;14.53;100.00;99827.00;6276393;28;20060;-71
2023/10/30 11:56:48;;;;;;;5.07;0.80;;;;;;;14.56;100.00;99827.59;6276615;28;20357;-70
2023/10/30 11:59:49;;;;;;;10.65;1.73;;;;;;;14.55;100.00;99827.72;6276472;28;20063;-71
2023/10/30 12:02:52;;;;;;;2.08;0.70;;;;;;;14.50;100.00;99811.41;6276367;28;20045;-71
2023/10/30 12:05:55;;;;;;;5.75;1.00;;;;;;;14.43;100.00;99808.41;6276087;28;20524;-72
2023/10/30 12:08:56;;;;;;;5.55;0.60;;;;;;;14.39;100.00;99797.25;6276412;28;20052;-72
2023/10/30 12:11:58;;;;;;;2.92;0.88;;;;;;;14.30;100.00;99797.19;6276128;28;20049;-71
2023/10/30 12:15:00;;;;;;;3.97;0.85;;;;;;;14.37;100.00;99801.00;6276079;28;20135;-73
2023/10/30 12:18:01;;;;;;;4.68;0.98;;;;;;;14.52;100.00;99806.84;6275959;28;20048;-73
2023/10/30 12:21:05;;;;;;;2.20;0.90;;;;;;;14.63;100.00;99812.91;6275706;28;20367;-73
2023/10/30 12:24:08;;;;;;;5.95;0.70;;;;;;;14.80;100.00;99816.72;6275650;28;20049;-73
2023/10/30 12:27:10;;;;;;;8.50;1.08;;;;;;;14.88;100.00;99805.50;6275816;28;20060;-72
2023/10/30 12:30:13;;;;;;;2.20;0.85;;;;;;;14.95;100.00;99812.78;6275837;28;20072;-71
2023/10/30 12:33:21;;;;;;;6.10;2.33;;;;;;;15.05;100.00;99806.69;6275374;28;20398;-71
2023/10/30 12:36:32;;;;;;;4.40;1.20;;;;;;;15.13;100.00;99810.34;6275857;28;20133;-73
2023/10/30 12:39:33;;;;;;;1.70;0.60;;;;;;;15.17;100.00;99806.47;6275406;28;20057;-71
2023/10/30 12:42:35;;;;;;;2.03;0.70;;;;;;;15.35;100.00;99796.06;6275346;28;20053;-72
2023/10/30 12:45:38;;;;;;;5.10;0.90;;;;;;;15.48;100.00;99801.06;6275120;28;20049;-74
2023/10/30 12:48:40;;;;;;;2.08;0.70;;;;;;;15.63;100.00;99802.38;6275360;28;20052;-72
2023/10/30 12:51:43;;;;;;;6.72;0.68;;;;;;;15.65;100.00;99802.25;6274965;28;20064;-73
2023/10/30 12:54:44;;;;;;;3.47;0.90;;;;;;;15.78;100.00;99794.88;6275232;28;20056;-74
2023/10/30 12:57:46;;;;;;;2.42;0.95;;;;;;;15.80;100.00;99797.38;6275250;28;20351;-74
2023/10/30 13:00:47;;;;;;;2.80;0.90;;;;;;;15.96;100.00;99793.22;6275062;28;20045;-74
2023/10/30 13:03:49;;;;;;;2.15;0.65;;;;;;;16.10;100.00;99784.00;6275410;28;20059;-74
2023/10/30 13:06:53;;;;;;;1.02;0.70;;;;;;;16.12;100.00;99784.69;6275232;28;20052;-73
2023/10/30 13:09:54;;;;;;;3.00;1.02;;;;;;;16.06;100.00;99776.47;6275349;28;20049;-74
2023/10/30 13:12:56;;;;;;;2.25;0.88;;;;;;;16.21;100.00;99767.09;6274968;28;20049;-74
2023/10/30 13:15:57;;;;;;;4.07;0.88;;;;;;;16.35;100.00;99763.16;6275242;28;20056;-73
2023/10/30 13:18:58;;;;;;;5.18;0.80;;;;;;;16.30;100.00;99745.03;6275045;28;20049;-72
2023/10/30 13:22:02;;;;;;;8.57;0.80;;;;;;;16.41;100.00;99742.22;6274513;28;20041;-74
2023/10/30 13:25:05;;;;;;;2.78;0.77;;;;;;;16.46;100.00;99742.63;6275063;28;20056;-73
2023/10/30 13:28:06;;;;;;;3.72;0.70;;;;;;;16.52;100.00;99733.25;6275011;28;20069;-72
2023/10/30 13:31:08;;;;;;;3.22;1.00;;;;;;;16.62;100.00;99731.44;6274900;28;20099;-72
2023/10/30 13:34:09;;;;;;;3.97;1.10;;;;;;;16.52;100.00;99714.69;6274758;28;20041;-73
2023/10/30 13:37:12;;;;;;;3.85;0.60;;;;;;;16.54;100.00;99711.91;6275039;28;20063;-73
2023/10/30 13:40:14;;;;;;;4.13;0.80;;;;;;;16.36;100.00;99704.72;6274749;28;20702;-74
2023/10/30 13:43:15;;;;;;;3.13;0.90;;;;;;;16.06;100.00;99700.44;6274883;28;20127;-74
2023/10/30 13:46:17;;;;;;;4.95;1.13;;;;;;;15.90;100.00;99703.69;6274614;28;20056;-74
2023/10/30 13:49:18;;;;;;;5.80;0.95;;;;;;;15.76;100.00;99698.84;6274745;28;20140;-73
2023/10/30 13:52:21;;;;;;;1.10;0.57;;;;;;;15.73;100.00;99688.50;6274442;28;20053;-73
2023/10/30 13:55:22;;;;;;;1.60;0.70;;;;;;;15.76;100.00;99695.31;6274515;28;20045;-73
2023/10/30 13:58:24;;;;;;;3.10;0.70;;;;;;;15.67;100.00;99686.44;6276255;28;20080;-74
2023/10/30 14:01:25;;;;;;;11.57;0.98;;;;;;;15.45;100.00;99679.56;6279053;28;20049;-72
2023/10/30 14:04:26;;;;;;;4.07;0.55;;;;;;;15.26;100.00;99683.06;6279249;28;20053;-71
2023/10/30 14:07:30;;;;;;;2.20;1.10;;;;;;;15.13;100.00;99675.38;6279159;28;20056;-71